Time;durP1;ratioP1;P1;durP2;ratioP2;P2;SDS_P1;SDS_P2;PMS_P1;PMS_P2;Temp;Humidity;BMP_temperature;BMP_pressure;BME280_temperature;BME280_humidity;BME280_pressure;Samples;Min_cycle;Max_cycle;Signal;HPM_P1;HPM_P2
2023/10/17 00:01:11;;;;;;;8.02;7.07;;;7.00;99.90;;;;;;5007243;28;20458;-82
2023/10/17 00:03:37;;;;;;;9.30;7.47;;;6.90;99.90;;;;;;4999736;28;20043;-82
2023/10/17 00:06:06;;;;;;;9.05;5.75;;;6.90;99.90;;;;;;4994062;28;20766;-82
2023/10/17 00:08:33;;;;;;;7.13;4.90;;;6.90;99.90;;;;;;5002790;28;20050;-82
2023/10/17 00:11:07;;;;;;;7.75;6.95;;;6.80;99.90;;;;;;5109167;27;20050;-82
2023/10/17 00:13:38;;;;;;;9.20;6.15;;;6.80;99.90;;;;;;5005676;28;20054;-82
2023/10/17 00:16:12;;;;;;;7.65;6.22;;;6.70;99.90;;;;;;4996081;28;20085;-82
2023/10/17 00:18:38;;;;;;;9.02;5.78;;;6.80;99.90;;;;;;5000470;28;20376;-82
2023/10/17 00:21:17;;;;;;;7.80;7.00;;;6.70;99.90;;;;;;4998714;28;20559;-82
2023/10/17 00:23:43;;;;;;;8.82;6.15;;;6.80;99.90;;;;;;5009843;28;20049;-81
2023/10/17 00:26:09;;;;;;;15.50;12.77;;;6.80;99.90;;;;;;4996683;28;20076;-82
2023/10/17 00:28:36;;;;;;;17.20;11.73;;;6.80;99.90;;;;;;5008880;28;20084;-82
2023/10/17 00:31:04;;;;;;;20.23;16.70;;;6.80;99.90;;;;;;4996878;28;20514;-82
2023/10/17 00:33:32;;;;;;;20.30;18.17;;;6.80;99.90;;;;;;5003772;28;20038;-82
2023/10/17 00:36:03;;;;;;;19.38;13.98;;;6.90;99.90;;;;;;4993599;28;20436;-82
2023/10/17 00:38:35;;;;;;;17.42;15.65;;;6.90;99.90;;;;;;4995962;28;20435;-81
2023/10/17 00:41:05;;;;;;;11.10;7.63;;;6.90;99.90;;;;;;4998864;28;20045;-80
2023/10/17 00:43:31;;;;;;;11.20;7.35;;;6.90;99.90;;;;;;4998277;28;20443;-81
2023/10/17 00:45:58;;;;;;;9.15;5.72;;;7.00;99.90;;;;;;4999375;28;20039;-81
2023/10/17 00:48:26;;;;;;;9.27;7.13;;;7.00;99.90;;;;;;4993921;28;20493;-80
2023/10/17 00:51:06;;;;;;;10.48;5.43;;;7.00;99.90;;;;;;5001627;28;20035;-80
2023/10/17 00:53:32;;;;;;;9.95;7.68;;;7.10;99.90;;;;;;4995322;28;20046;-80
2023/10/17 00:55:59;;;;;;;9.90;5.60;;;7.10;99.90;;;;;;5012023;28;20052;-80
2023/10/17 00:58:25;;;;;;;11.45;6.93;;;7.00;99.90;;;;;;5010990;28;20076;-80
2023/10/17 01:01:15;;;;;;;12.95;6.13;;;7.00;99.90;;;;;;5005246;28;20477;-80
2023/10/17 01:03:43;;;;;;;8.55;5.07;;;7.00;99.90;;;;;;4995802;28;20034;-80
2023/10/17 01:06:37;;;;;;;11.02;5.50;;;7.00;99.90;;;;;;5024145;28;20073;-80
2023/10/17 01:09:08;;;;;;;9.70;5.93;;;7.10;99.90;;;;;;4995639;28;20051;-80
2023/10/17 01:11:38;;;;;;;8.82;5.53;;;7.00;99.90;;;;;;4988032;28;20046;-80
2023/10/17 01:14:05;;;;;;;9.93;5.40;;;7.00;99.90;;;;;;4991646;28;20060;-80
2023/10/17 01:16:34;;;;;;;8.23;4.78;;;7.00;99.90;;;;;;5003495;28;20049;-80
2023/10/17 01:19:04;;;;;;;8.05;6.03;;;7.00;99.90;;;;;;4995211;28;20058;-80
2023/10/17 01:21:30;;;;;;;9.80;4.55;;;7.00;99.90;;;;;;4996503;28;20042;-80
2023/10/17 01:23:56;;;;;;;8.38;5.07;;;7.10;99.90;;;;;;5011634;28;20098;-76
2023/10/17 01:26:23;;;;;;;8.82;6.15;;;7.10;99.90;;;;;;5012466;28;20038;-80
2023/10/17 01:28:50;;;;;;;10.95;4.78;;;7.00;99.90;;;;;;5011491;28;20064;-80
2023/10/17 01:31:24;;;;;;;7.82;6.18;;;7.00;99.90;;;;;;4992940;28;20099;-80
2023/10/17 01:33:53;;;;;;;9.40;4.85;;;7.00;99.90;;;;;;4988859;28;20107;-80
2023/10/17 01:36:19;;;;;;;10.43;5.68;;;7.00;99.90;;;;;;5005127;28;20057;-80
2023/10/17 01:38:46;;;;;;;9.82;6.78;;;7.00;99.90;;;;;;4989939;28;20114;-80
2023/10/17 01:41:12;;;;;;;9.70;5.30;;;6.90;99.90;;;;;;4990678;28;20060;-80
2023/10/17 01:43:45;;;;;;;9.32;5.70;;;6.90;99.90;;;;;;5001763;28;20047;-80
2023/10/17 01:46:28;;;;;;;6.18;3.95;;;6.90;99.90;;;;;;4996759;28;20050;-80
2023/10/17 01:48:55;;;;;;;8.43;4.20;;;7.00;99.90;;;;;;4997142;28;20050;-80
2023/10/17 01:51:24;;;;;;;7.65;4.60;;;7.00;99.90;;;;;;5017013;28;20052;-80
2023/10/17 01:53:51;;;;;;;10.10;4.45;;;7.00;99.90;;;;;;5001126;28;20133;-79
2023/10/17 01:56:25;;;;;;;7.43;4.53;;;7.00;99.90;;;;;;4991028;28;20046;-80
2023/10/17 01:58:52;;;;;;;6.30;4.35;;;7.00;99.90;;;;;;4996123;28;20371;-79
2023/10/17 02:01:24;;;;;;;8.60;4.47;;;7.00;99.90;;;;;;5011271;28;20098;-79
2023/10/17 02:04:01;;;;;;;6.78;4.40;;;7.00;99.90;;;;;;5005544;28;20105;-79
2023/10/17 02:06:28;;;;;;;7.60;4.60;;;7.00;99.90;;;;;;5108940;27;20049;-79
2023/10/17 02:08:55;;;;;;;8.43;6.00;;;6.90;99.90;;;;;;5005426;28;20056;-80
2023/10/17 02:11:24;;;;;;;6.85;4.82;;;6.90;99.90;;;;;;4994325;28;20077;-79
2023/10/17 02:13:57;;;;;;;7.78;4.47;;;7.00;99.90;;;;;;5024947;28;20064;-79
2023/10/17 02:16:24;;;;;;;7.18;4.03;;;7.00;99.90;;;;;;4996546;28;20045;-79
2023/10/17 02:18:51;;;;;;;9.85;4.72;;;7.00;99.90;;;;;;5002725;28;20049;-79
2023/10/17 02:21:18;;;;;;;9.00;6.30;;;7.00;99.90;;;;;;5001283;28;20115;-79
2023/10/17 02:23:49;;;;;;;8.23;6.00;;;7.00;99.90;;;;;;5008334;28;20053;-79
2023/10/17 02:26:21;;;;;;;8.38;3.78;;;7.00;99.90;;;;;;5001448;28;20079;-79
2023/10/17 02:28:48;;;;;;;8.27;4.82;;;7.10;99.90;;;;;;5010928;28;20148;-79
2023/10/17 02:31:14;;;;;;;10.02;4.50;;;7.10;99.90;;;;;;5010312;28;20050;-79
2023/10/17 02:33:43;;;;;;;8.88;5.38;;;7.10;99.90;;;;;;5005522;28;20057;-79
2023/10/17 02:36:12;;;;;;;8.27;4.22;;;7.20;99.90;;;;;;4990503;28;20069;-80
2023/10/17 02:38:41;;;;;;;7.32;6.00;;;7.20;99.90;;;;;;4996336;28;20054;-80
2023/10/17 02:41:13;;;;;;;8.90;3.95;;;7.20;99.90;;;;;;4991336;28;20057;-80
2023/10/17 02:43:40;;;;;;;5.15;3.83;;;7.20;99.90;;;;;;5004949;28;20095;-80
2023/10/17 02:46:06;;;;;;;9.70;5.60;;;7.20;99.90;;;;;;5005912;28;20124;-80
2023/10/17 02:48:38;;;;;;;7.38;5.22;;;7.20;99.90;;;;;;5093371;27;20062;-80
2023/10/17 02:53:56;;;;;;;7.68;3.88;;;7.10;99.90;;;;;;5001220;28;20477;-80
2023/10/17 02:56:23;;;;;;;7.97;4.10;;;7.00;99.90;;;;;;4992312;28;20103;-80
2023/10/17 02:58:59;;;;;;;6.00;3.83;;;6.90;99.90;;;;;;4994224;28;20513;-80
2023/10/17 03:01:26;;;;;;;8.32;4.10;;;6.80;99.90;;;;;;5098423;27;20477;-80
2023/10/17 03:03:52;;;;;;;;;;;6.80;99.90;;;;;;5003406;28;20788;-80
2023/10/17 03:06:18;;;;;;;7.38;4.00;;;6.70;99.90;;;;;;5001745;28;19925;-80
2023/10/17 03:08:51;;;;;;;6.28;4.45;;;6.70;99.90;;;;;;4999026;28;20538;-80
2023/10/17 03:11:35;;;;;;;5.55;4.05;;;6.60;99.90;;;;;;5006759;28;20041;-80
2023/10/17 03:14:12;;;;;;;5.72;3.75;;;6.50;99.90;;;;;;5010928;28;20038;-80
2023/10/17 03:16:42;;;;;;;6.38;3.70;;;6.50;99.90;;;;;;5023229;28;20053;-80
2023/10/17 03:19:11;;;;;;;6.43;3.38;;;6.50;99.90;;;;;;5098472;27;20038;-80
2023/10/17 03:21:39;;;;;;;8.95;3.90;;;6.50;99.90;;;;;;5003603;28;20057;-79
2023/10/17 03:24:04;;;;;;;;;;;6.50;99.90;;;;;;4999813;28;20077;-80
2023/10/17 03:26:39;;;;;;;6.53;3.65;;;6.50;99.90;;;;;;5004918;28;20000;-79
2023/10/17 03:29:22;;;;;;;8.48;3.85;;;6.50;99.90;;;;;;4995207;28;20393;-79
2023/10/17 03:31:53;;;;;;;6.15;4.88;;;6.50;99.90;;;;;;4989507;28;20076;-79
2023/10/17 03:34:29;;;;;;;9.40;4.18;;;6.40;99.90;;;;;;4992066;28;20125;-80
2023/10/17 03:36:55;;;;;;;8.43;3.87;;;6.50;99.90;;;;;;4989122;28;20046;-80
2023/10/17 03:39:27;;;;;;;7.05;3.80;;;6.40;99.90;;;;;;5006884;28;20337;-79
2023/10/17 03:41:56;;;;;;;7.43;4.32;;;6.40;99.90;;;;;;4991683;28;20050;-80
2023/10/17 03:44:30;;;;;;;6.63;3.72;;;6.40;99.90;;;;;;4992929;28;20034;-79
2023/10/17 03:47:03;;;;;;;6.10;3.90;;;6.40;99.90;;;;;;5105765;27;20068;-80
2023/10/17 03:49:36;;;;;;;6.63;4.10;;;6.30;99.90;;;;;;5005933;28;20513;-79
2023/10/17 03:52:06;;;;;;;6.40;5.15;;;6.30;99.90;;;;;;4993839;28;20049;-79
2023/10/17 03:54:38;;;;;;;6.80;5.00;;;6.30;99.90;;;;;;4992565;28;20046;-79
2023/10/17 03:57:15;;;;;;;7.65;4.75;;;6.20;99.90;;;;;;5103626;27;20406;-79
2023/10/17 03:59:42;;;;;;;5.85;3.53;;;6.20;99.90;;;;;;4999204;28;20039;-79
2023/10/17 04:02:21;;;;;;;8.68;5.05;;;6.10;99.90;;;;;;4987241;28;20058;-79
2023/10/17 04:04:53;;;;;;;7.00;3.90;;;6.10;99.90;;;;;;4989146;28;20515;-79
2023/10/17 04:07:31;;;;;;;7.85;3.88;;;6.00;99.90;;;;;;5014517;28;20047;-79
2023/10/17 04:12:37;;;;;;;4.38;3.28;;;6.00;99.90;;;;;;5008892;28;20081;-79
2023/10/17 04:15:07;;;;;;;6.28;4.22;;;5.90;99.90;;;;;;5000732;28;20046;-79
2023/10/17 04:17:36;;;;;;;5.90;3.72;;;5.90;99.90;;;;;;4994885;28;20054;-79
2023/10/17 04:20:11;;;;;;;10.82;4.32;;;5.90;99.90;;;;;;5005958;28;20061;-79
2023/10/17 04:22:43;;;;;;;9.27;5.30;;;6.00;99.90;;;;;;4997912;28;20157;-79
2023/10/17 04:28:04;;;;;;;8.32;3.75;;;6.10;99.90;;;;;;5010483;28;20050;-79
2023/10/17 04:30:30;;;;;;;7.60;4.28;;;6.10;99.90;;;;;;5095784;27;20042;-79
2023/10/17 04:33:14;;;;;;;8.45;4.30;;;6.10;99.90;;;;;;5007451;28;20042;-79
2023/10/17 04:35:46;;;;;;;5.93;3.78;;;6.10;99.90;;;;;;5091719;27;20512;-79
2023/10/17 04:38:36;;;;;;;7.65;4.43;;;6.10;99.90;;;;;;5008142;28;20038;-79
2023/10/17 04:46:16;;;;;;;6.65;3.72;;;6.00;99.90;;;;;;4997460;28;20054;-79
2023/10/17 04:48:47;;;;;;;8.13;4.72;;;5.90;99.90;;;;;;4994016;28;20569;-79
2023/10/17 04:53:50;;;;;;;7.47;5.13;;;6.00;99.90;;;;;;4996303;28;20828;-79
2023/10/17 04:56:17;;;;;;;7.35;4.95;;;5.90;99.90;;;;;;5001646;28;20070;-79
2023/10/17 06:17:48;;;;;;;6.63;4.28;;;5.70;99.90;;;;;;4999913;28;20112;-80
2023/10/17 06:20:17;;;;;;;7.32;4.15;;;5.70;99.90;;;;;;5105445;27;20115;-81
2023/10/17 06:28:26;;;;;;;7.03;4.28;;;5.70;99.90;;;;;;5015130;28;20049;-81
2023/10/17 06:33:36;;;;;;;5.60;4.18;;;5.60;99.90;;;;;;5102660;27;20049;-80
2023/10/17 06:36:24;;;;;;;6.13;4.57;;;5.60;99.90;;;;;;5009198;28;20226;-80
2023/10/17 06:38:51;;;;;;;6.00;5.40;;;5.50;99.90;;;;;;5003522;28;20050;-80
2023/10/17 06:41:39;;;;;;;5.15;3.83;;;5.50;99.90;;;;;;5107715;27;20123;-80
2023/10/17 06:44:09;;;;;;;7.13;4.93;;;5.60;99.90;;;;;;4999433;28;20046;-80
2023/10/17 06:54:43;;;;;;;6.15;4.60;;;5.70;99.90;;;;;;5003504;28;20110;-80
2023/10/17 06:57:19;;;;;;;7.25;4.88;;;5.80;99.90;;;;;;5007267;28;20046;-80
2023/10/17 06:59:52;;;;;;;8.65;4.90;;;5.80;99.90;;;;;;5015321;28;20136;-80
2023/10/17 07:02:34;;;;;;;8.65;6.03;;;5.90;99.90;;;;;;5000846;28;20041;-80
2023/10/17 07:05:01;;;;;;;9.10;6.70;;;6.00;99.90;;;;;;5007526;28;20037;-81
2023/10/17 07:07:32;;;;;;;11.38;9.40;;;6.10;99.90;;;;;;5000749;28;20350;-86
2023/10/17 07:12:41;;;;;;;12.40;9.20;;;6.40;99.90;;;;;;5006674;28;20400;-76
2023/10/17 07:15:18;;;;;;;12.88;8.43;;;6.50;99.90;;;;;;5004338;28;20042;-78
2023/10/17 07:18:39;;;;;;;11.43;8.05;;;6.60;99.90;;;;;;5010538;28;20042;-79
2023/10/17 07:23:26;;;;;;;13.20;10.18;;;6.80;99.90;;;;;;4996642;28;20104;-77
2023/10/17 07:25:56;;;;;;;14.75;8.30;;;6.90;99.90;;;;;;5004283;28;20090;-76
2023/10/17 07:28:22;;;;;;;12.68;9.82;;;7.00;99.90;;;;;;4992154;28;20046;-77
2023/10/17 07:30:57;;;;;;;12.18;10.65;;;7.10;99.90;;;;;;5011774;28;20579;-75
2023/10/17 07:33:24;;;;;;;10.75;8.32;;;7.10;99.90;;;;;;4992654;28;20053;-74
2023/10/17 07:35:56;;;;;;;10.43;7.82;;;7.20;99.90;;;;;;5009734;28;20412;-82
2023/10/17 07:38:27;;;;;;;13.45;7.88;;;7.20;99.90;;;;;;5016630;28;20037;-83
2023/10/17 07:41:09;;;;;;;13.52;7.70;;;7.30;99.90;;;;;;4999675;28;20137;-83
2023/10/17 07:43:35;;;;;;;13.93;7.93;;;7.30;99.90;;;;;;4989351;28;20058;-83
2023/10/17 07:46:15;;;;;;;11.40;6.93;;;7.30;99.90;;;;;;4989178;28;20060;-83
2023/10/17 07:48:48;;;;;;;10.23;8.30;;;7.40;99.90;;;;;;4990772;28;20059;-83
2023/10/17 07:51:15;;;;;;;15.50;6.70;;;7.40;99.90;;;;;;5007085;28;20125;-83
2023/10/17 07:53:47;;;;;;;9.52;7.57;;;7.50;99.90;;;;;;4990036;28;20038;-82
2023/10/17 07:56:20;;;;;;;8.45;6.60;;;7.50;99.90;;;;;;5009140;28;20038;-84
2023/10/17 07:59:04;;;;;;;9.32;6.15;;;7.60;99.90;;;;;;4988095;28;20050;-80
2023/10/17 08:01:42;;;;;;;9.55;7.68;;;7.60;99.90;;;;;;5006831;28;20500;-82
2023/10/17 08:04:17;;;;;;;9.50;5.82;;;7.60;99.90;;;;;;4998432;28;20056;-82
2023/10/17 08:06:50;;;;;;;7.45;5.40;;;7.70;99.90;;;;;;5010870;28;20077;-80
2023/10/17 08:09:23;;;;;;;11.48;5.72;;;7.80;99.90;;;;;;5005430;28;20102;-78
2023/10/17 08:11:53;;;;;;;7.95;6.25;;;7.80;99.90;;;;;;4996928;28;20054;-77
2023/10/17 08:14:31;;;;;;;7.05;5.13;;;7.90;99.90;;;;;;5003503;28;20127;-79
2023/10/17 08:16:58;;;;;;;8.23;5.50;;;8.00;99.90;;;;;;4993918;28;20042;-77
2023/10/17 08:19:29;;;;;;;8.23;5.65;;;8.00;99.90;;;;;;4998426;28;20050;-77
2023/10/17 08:24:40;;;;;;;7.53;4.40;;;8.10;99.90;;;;;;5092879;27;20050;-77
2023/10/17 08:29:49;;;;;;;7.30;4.78;;;8.20;99.90;;;;;;4997530;28;20054;-81
2023/10/17 08:34:59;;;;;;;8.13;4.50;;;8.30;99.90;;;;;;5096502;27;20416;-82
2023/10/17 08:37:39;;;;;;;9.88;3.85;;;8.40;99.90;;;;;;5017279;28;20046;-82
2023/10/17 08:40:29;;;;;;;7.90;3.47;;;8.50;99.90;;;;;;5108515;27;20046;-86
2023/10/17 08:42:52;;;;;;;6.65;2.30;;;8.60;99.90;;;;;;5005042;28;20046;-82
2023/10/17 08:45:19;;;;;;;7.30;2.40;;;8.60;99.90;;;;;;4993019;28;20053;-79
2023/10/17 08:47:46;;;;;;;4.40;2.10;;;8.70;99.90;;;;;;5001607;28;20091;-80
2023/10/17 08:50:15;;;;;;;4.30;1.90;;;8.80;99.90;;;;;;4996711;28;20061;-79
2023/10/17 08:52:44;;;;;;;7.70;2.85;;;8.80;99.90;;;;;;5004663;28;20079;-86
2023/10/17 08:55:15;;;;;;;4.93;2.08;;;8.90;99.90;;;;;;4992355;28;20046;-84
2023/10/17 08:57:41;;;;;;;3.25;1.90;;;8.90;99.90;;;;;;5001570;28;20045;-85
2023/10/17 09:02:48;;;;;;;4.85;2.20;;;9.10;99.90;;;;;;4998214;28;20053;-81
2023/10/17 09:05:18;;;;;;;4.97;1.90;;;9.10;99.90;;;;;;5004491;28;20060;-78
2023/10/17 09:07:48;;;;;;;5.07;1.70;;;9.10;99.90;;;;;;5003581;28;20050;-79
2023/10/17 09:10:38;;;;;;;3.90;1.67;;;9.20;99.90;;;;;;5011016;28;20381;-82
2023/10/17 09:15:53;;;;;;;3.45;1.30;;;9.30;99.90;;;;;;4998279;28;20069;-82
2023/10/17 09:18:36;;;;;;;4.45;1.40;;;9.40;99.90;;;;;;5005852;28;20068;-87
2023/10/17 09:21:04;;;;;;;4.93;1.80;;;9.40;99.90;;;;;;4994424;28;20058;-81
2023/10/17 09:23:31;;;;;;;3.35;1.38;;;9.60;99.90;;;;;;5107251;27;20050;-77
2023/10/17 09:25:58;;;;;;;2.45;1.20;;;9.70;99.90;;;;;;4999968;28;20122;-81
2023/10/17 09:28:28;;;;;;;3.33;1.17;;;9.70;99.90;;;;;;5003592;28;20049;-76
2023/10/17 09:30:57;;;;;;;4.85;1.23;;;9.70;99.90;;;;;;4977270;28;20076;-76
2023/10/17 09:33:30;;;;;;;2.85;1.40;;;9.80;99.90;;;;;;4990960;28;20038;-78
2023/10/17 09:36:00;;;;;;;4.03;2.10;;;9.80;99.90;;;;;;5004596;28;20041;-79
2023/10/17 09:38:31;;;;;;;5.85;1.60;;;9.80;99.90;;;;;;4987969;28;20041;-79
2023/10/17 09:41:01;;;;;;;3.58;1.50;;;9.80;99.90;;;;;;5013316;28;20048;-77
2023/10/17 09:43:29;;;;;;;6.57;1.70;;;9.90;99.90;;;;;;4992291;28;20045;-77
2023/10/17 09:46:02;;;;;;;4.35;1.38;;;9.90;99.90;;;;;;4989005;28;20481;-76
2023/10/17 09:48:36;;;;;;;3.60;1.83;;;10.00;99.90;;;;;;4992767;28;20062;-77
2023/10/17 09:51:03;;;;;;;5.47;1.50;;;10.00;99.90;;;;;;5004129;28;20419;-76
2023/10/17 09:53:36;;;;;;;;;;;10.10;99.90;;;;;;5017311;28;20129;-76
2023/10/17 09:56:08;;;;;;;3.30;1.13;;;10.10;99.90;;;;;;5002196;28;19921;-75
2023/10/17 09:58:37;;;;;;;3.75;1.45;;;10.10;99.90;;;;;;5000362;28;20050;-77
2023/10/17 10:01:17;;;;;;;6.88;1.70;;;10.20;99.90;;;;;;4988254;28;20445;-77
2023/10/17 10:03:47;;;;;;;3.83;1.50;;;10.30;99.90;;;;;;5004509;28;20042;-76
2023/10/17 10:06:25;;;;;;;2.83;1.67;;;10.30;99.90;;;;;;4998936;28;20042;-77
2023/10/17 10:08:55;;;;;;;6.07;1.20;;;10.40;99.90;;;;;;4999485;28;20468;-77
2023/10/17 10:11:41;;;;;;;6.07;1.63;;;10.50;99.90;;;;;;5003220;28;20046;-82
2023/10/17 10:14:08;;;;;;;3.88;1.05;;;10.60;99.90;;;;;;4991812;28;20050;-79
2023/10/17 10:16:50;;;;;;;3.95;1.30;;;10.60;99.90;;;;;;4996826;28;20047;-79
2023/10/17 10:19:19;;;;;;;3.22;1.25;;;10.60;99.90;;;;;;4987016;28;20062;-82
2023/10/17 10:21:54;;;;;;;3.65;1.10;;;10.70;99.90;;;;;;4999672;28;20075;-80
2023/10/17 10:24:26;;;;;;;5.60;1.58;;;10.70;99.90;;;;;;5002794;28;20041;-77
2023/10/17 10:27:16;;;;;;;6.93;1.42;;;10.80;99.90;;;;;;5014659;28;20460;-83
2023/10/17 10:29:42;;;;;;;3.13;1.27;;;10.80;99.90;;;;;;5017279;28;20488;-78
2023/10/17 10:32:40;;;;;;;2.42;1.30;;;10.80;99.90;;;;;;5005690;28;20477;-82
2023/10/17 10:35:06;;;;;;;2.00;1.15;;;10.90;99.90;;;;;;4993680;28;20553;-79
2023/10/17 10:37:47;;;;;;;5.45;1.40;;;10.90;99.90;;;;;;5011812;28;20452;-81
2023/10/17 10:42:48;;;;;;;4.78;1.73;;;10.90;99.90;;;;;;5019211;28;20144;-81
2023/10/17 10:45:55;;;;;;;4.63;1.67;;;10.90;99.90;;;;;;4993768;28;20046;-82
2023/10/17 10:48:21;;;;;;;4.45;1.42;;;11.00;99.90;;;;;;5104759;27;20536;-81
2023/10/17 10:51:01;;;;;;;5.38;1.00;;;11.00;99.90;;;;;;4989895;28;20053;-83
2023/10/17 10:53:31;;;;;;;4.18;1.48;;;11.00;99.90;;;;;;5001624;28;20050;-75
2023/10/17 10:56:00;;;;;;;5.10;1.13;;;11.10;99.90;;;;;;5023460;28;20096;-81
2023/10/17 10:58:27;;;;;;;5.45;1.55;;;11.20;99.90;;;;;;5017093;28;20061;-78
2023/10/17 11:00:54;;;;;;;4.00;1.13;;;11.20;99.90;;;;;;5109703;27;20550;-79
2023/10/17 11:03:22;;;;;;;4.38;1.50;;;11.30;99.90;;;;;;5010695;28;20045;-79
2023/10/17 11:06:02;;;;;;;4.28;1.10;;;11.30;99.90;;;;;;5024675;28;20550;-78
2023/10/17 11:08:37;;;;;;;2.60;0.80;;;11.30;99.90;;;;;;4996004;28;20037;-78
2023/10/17 11:11:04;;;;;;;4.32;1.25;;;11.30;99.90;;;;;;4992696;28;20065;-78
2023/10/17 11:13:59;;;;;;;7.53;2.07;;;11.30;99.90;;;;;;4992864;28;20046;-80
2023/10/17 11:16:26;;;;;;;3.60;1.20;;;11.40;99.90;;;;;;5011564;28;20054;-83
2023/10/17 11:18:52;;;;;;;4.47;1.70;;;11.40;99.90;;;;;;5003166;28;20049;-81
2023/10/17 11:21:20;;;;;;;4.13;1.15;;;11.40;99.90;;;;;;4993137;28;20309;-78
2023/10/17 11:23:50;;;;;;;3.65;1.30;;;11.50;99.90;;;;;;5000360;28;20038;-79
2023/10/17 11:26:21;;;;;;;3.95;1.40;;;11.50;99.90;;;;;;5009107;28;20054;-79
2023/10/17 11:28:47;;;;;;;3.17;1.10;;;11.60;99.90;;;;;;4986697;28;20058;-79
2023/10/17 11:31:21;;;;;;;5.95;1.50;;;11.60;99.90;;;;;;5001030;28;20037;-82
2023/10/17 11:33:54;;;;;;;2.45;1.52;;;11.60;99.90;;;;;;5006700;28;20084;-79
2023/10/17 11:36:21;;;;;;;3.92;1.27;;;11.70;99.90;;;;;;4993216;28;20129;-80
2023/10/17 11:38:57;;;;;;;6.35;1.50;;;11.70;99.90;;;;;;5004855;28;20938;-81
2023/10/17 11:41:57;;;;;;;4.10;1.52;;;11.70;99.90;;;;;;5000649;28;20046;-79
2023/10/17 11:44:15;;;;;;;4.72;1.40;;;11.70;99.90;;;;;;5019360;28;20054;-82
2023/10/17 11:46:55;;;;;;;5.68;1.52;;;11.70;99.90;;;;;;5073537;28;20053;-77
2023/10/17 11:49:21;;;;;;;4.65;1.42;;;11.80;99.90;;;;;;5014898;28;20115;-78
2023/10/17 11:51:59;;;;;;;3.87;1.77;;;11.80;99.90;;;;;;4999894;28;20680;-82
2023/10/17 11:54:25;;;;;;;4.90;1.40;;;11.80;99.90;;;;;;4989721;28;20129;-80
2023/10/17 11:56:51;;;;;;;4.70;1.50;;;11.80;99.90;;;;;;5054428;28;20042;-82
2023/10/17 11:59:20;;;;;;;5.35;1.58;;;11.90;99.90;;;;;;5010749;28;20050;-81
2023/10/17 12:01:47;;;;;;;4.55;1.33;;;11.90;99.90;;;;;;5003863;28;20069;-82
2023/10/17 12:04:16;;;;;;;4.88;1.42;;;11.90;99.90;;;;;;4997293;28;20058;-80
2023/10/17 12:06:46;;;;;;;7.68;3.10;;;12.00;99.90;;;;;;4989743;28;20678;-80
2023/10/17 12:09:23;;;;;;;4.32;1.55;;;12.10;99.90;;;;;;5003986;28;20065;-81
2023/10/17 12:11:54;;;;;;;2.90;1.38;;;12.10;99.90;;;;;;4988415;28;20091;-81
2023/10/17 12:14:21;;;;;;;5.47;1.63;;;12.10;99.90;;;;;;4994998;28;20073;-79
2023/10/17 12:16:54;;;;;;;5.70;1.70;;;12.10;99.90;;;;;;5007703;28;20046;-78
2023/10/17 12:19:26;;;;;;;3.15;1.38;;;12.10;99.90;;;;;;5098768;27;20042;-79
2023/10/17 12:21:53;;;;;;;5.28;1.73;;;12.10;99.90;;;;;;4987181;28;20133;-80
2023/10/17 12:24:24;;;;;;;3.47;1.77;;;12.10;99.90;;;;;;5004357;28;20111;-83
2023/10/17 12:26:53;;;;;;;3.05;1.30;;;12.20;99.90;;;;;;4998285;28;20048;-79
2023/10/17 12:29:19;;;;;;;4.00;1.58;;;12.20;99.90;;;;;;4998765;28;20042;-76
2023/10/17 12:31:45;;;;;;;4.07;1.50;;;12.20;99.90;;;;;;5006974;28;20050;-80
2023/10/17 12:34:15;;;;;;;3.90;1.43;;;12.20;99.90;;;;;;4996430;28;20124;-79
2023/10/17 12:36:41;;;;;;;4.97;1.60;;;12.30;99.90;;;;;;4990113;28;20056;-79
2023/10/17 12:39:16;;;;;;;4.50;1.40;;;12.20;99.90;;;;;;5016308;28;20045;-80
2023/10/17 12:41:46;;;;;;;4.78;1.52;;;12.30;99.90;;;;;;5015336;28;20045;-80
2023/10/17 12:44:12;;;;;;;5.60;1.65;;;12.30;99.90;;;;;;4989450;28;20054;-77
2023/10/17 12:46:38;;;;;;;3.03;1.50;;;12.30;99.90;;;;;;5014975;28;20046;-78
2023/10/17 12:49:06;;;;;;;4.65;1.83;;;12.30;99.90;;;;;;5010833;28;20049;-78
2023/10/17 12:51:32;;;;;;;;;;;12.30;99.90;;;;;;4998900;28;20042;-79
2023/10/17 12:53:58;;;;;;;5.63;1.50;;;12.30;99.90;;;;;;5017346;28;19927;-79
2023/10/17 12:56:24;;;;;;;4.72;1.90;;;12.30;99.90;;;;;;4991647;28;20115;-81
2023/10/17 12:58:51;;;;;;;5.43;1.63;;;12.40;99.90;;;;;;4995443;28;20053;-79
2023/10/17 13:01:17;;;;;;;2.63;1.40;;;12.40;99.90;;;;;;5003921;28;20435;-86
2023/10/17 13:03:43;;;;;;;3.30;1.40;;;12.40;99.90;;;;;;5014942;28;20038;-80
2023/10/17 13:06:09;;;;;;;4.05;1.50;;;12.50;99.90;;;;;;5111787;27;20077;-85
2023/10/17 13:08:35;;;;;;;4.65;1.55;;;12.50;99.90;;;;;;4995518;28;20146;-85
2023/10/17 13:11:04;;;;;;;3.95;1.60;;;12.50;99.90;;;;;;5001998;28;20062;-83
2023/10/17 13:13:30;;;;;;;6.03;2.25;;;12.50;99.90;;;;;;4997649;28;20063;-88
2023/10/17 13:15:57;;;;;;;2.63;1.40;;;12.50;99.90;;;;;;4992379;28;20717;-88
2023/10/17 13:18:29;;;;;;;4.65;1.60;;;12.50;99.90;;;;;;5004487;28;20484;-84
2023/10/17 13:21:02;;;;;;;3.85;1.50;;;12.60;99.90;;;;;;5008535;28;20887;-86
2023/10/17 13:23:28;;;;;;;3.53;1.77;;;12.50;99.90;;;;;;4997509;28;20048;-82
2023/10/17 13:25:54;;;;;;;4.45;1.58;;;12.60;99.90;;;;;;4993386;28;20050;-83
2023/10/17 13:28:20;;;;;;;5.38;1.85;;;12.60;99.90;;;;;;5003134;28;20042;-87
2023/10/17 13:30:45;;;;;;;4.90;1.75;;;12.60;99.90;;;;;;5105103;27;20054;-86
2023/10/17 13:33:11;;;;;;;4.85;1.60;;;12.60;99.90;;;;;;5005432;28;20111;-85
2023/10/17 13:35:40;;;;;;;4.95;1.73;;;12.60;99.90;;;;;;5004114;28;20045;-85
2023/10/17 13:38:06;;;;;;;3.67;1.73;;;12.60;99.90;;;;;;5001505;28;20902;-86
2023/10/17 13:40:32;;;;;;;4.85;1.65;;;12.60;99.90;;;;;;4988736;28;20164;-86
2023/10/17 13:43:00;;;;;;;5.38;1.80;;;12.60;99.90;;;;;;4999357;28;20149;-89
2023/10/17 13:45:27;;;;;;;3.88;1.70;;;12.60;99.90;;;;;;4990416;28;20046;-91
2023/10/17 13:47:54;;;;;;;4.75;2.20;;;12.60;99.90;;;;;;4999798;28;20058;-87
2023/10/17 13:50:20;;;;;;;;;;;12.60;99.90;;;;;;5102453;27;20464;-92
2023/10/17 13:52:47;;;;;;;4.30;1.80;;;12.60;99.90;;;;;;5009475;28;20025;-86
2023/10/17 13:55:25;;;;;;;4.50;2.07;;;12.60;99.90;;;;;;5000081;28;20224;-85
2023/10/17 13:58:00;;;;;;;5.20;1.80;;;12.60;99.90;;;;;;5000482;28;20651;-86
2023/10/17 14:00:54;;;;;;;4.40;1.90;;;12.60;99.90;;;;;;5013277;28;20060;-88
2023/10/17 14:03:22;;;;;;;5.63;2.33;;;12.60;99.90;;;;;;5001065;28;20504;-87
2023/10/17 14:05:47;;;;;;;9.38;3.80;;;12.50;99.90;;;;;;5007565;28;20510;-90
2023/10/17 14:08:18;;;;;;;7.00;2.80;;;12.60;99.90;;;;;;5002749;28;20121;-86
2023/10/17 14:10:46;;;;;;;6.72;2.25;;;12.60;99.90;;;;;;4996582;28;20053;-88
2023/10/17 14:13:16;;;;;;;4.35;1.60;;;12.60;99.90;;;;;;5002550;28;20046;-87
2023/10/17 14:15:43;;;;;;;5.75;2.05;;;12.50;99.90;;;;;;4986947;28;20249;-76
2023/10/17 14:18:16;;;;;;;3.27;1.70;;;12.50;99.90;;;;;;5035384;28;20113;-74
2023/10/17 14:23:30;;;;;;;5.35;1.65;;;12.50;99.90;;;;;;5013699;28;20065;-84
2023/10/17 14:26:09;;;;;;;5.38;1.95;;;12.50;99.90;;;;;;4990591;28;20046;-83
2023/10/17 14:28:36;;;;;;;2.67;1.33;;;12.50;99.90;;;;;;4992111;28;20051;-84
2023/10/17 14:31:05;;;;;;;5.93;1.92;;;12.50;99.90;;;;;;4995339;28;20078;-82
2023/10/17 14:33:32;;;;;;;3.75;1.80;;;12.40;99.90;;;;;;5007141;28;20037;-89
2023/10/17 14:36:05;;;;;;;5.47;1.90;;;12.40;99.90;;;;;;5010755;28;20046;-86
2023/10/17 14:38:34;;;;;;;5.50;1.73;;;12.40;99.90;;;;;;5008390;28;20125;-83
2023/10/17 14:41:10;;;;;;;4.18;1.85;;;12.30;99.90;;;;;;4996466;28;20057;-85
2023/10/17 14:43:36;;;;;;;3.55;1.60;;;12.30;99.90;;;;;;4998324;28;20527;-83
2023/10/17 14:46:02;;;;;;;3.88;1.80;;;12.30;99.90;;;;;;5005216;28;20121;-87
2023/10/17 14:48:30;;;;;;;4.43;1.52;;;12.30;99.90;;;;;;5007237;28;20052;-79
2023/10/17 14:50:55;;;;;;;3.75;1.90;;;12.30;99.90;;;;;;5012208;28;20046;-83
2023/10/17 14:53:21;;;;;;;6.53;1.73;;;12.30;99.90;;;;;;4990977;28;20050;-85
2023/10/17 14:55:58;;;;;;;6.07;1.73;;;12.20;99.90;;;;;;4996350;28;20556;-84
2023/10/17 14:58:24;;;;;;;6.30;2.00;;;12.20;99.90;;;;;;5002037;28;20046;-88
2023/10/17 15:00:53;;;;;;;2.25;1.40;;;12.10;99.90;;;;;;4989731;28;20051;-82
2023/10/17 15:03:20;;;;;;;3.45;1.42;;;12.20;99.90;;;;;;5000167;28;20062;-81
2023/10/17 15:05:46;;;;;;;3.77;1.77;;;12.10;99.90;;;;;;4995172;28;20052;-83
2023/10/17 15:08:11;;;;;;;4.10;1.52;;;12.10;99.90;;;;;;5006749;28;20310;-78
2023/10/17 15:10:40;;;;;;;2.60;1.65;;;12.00;99.90;;;;;;4991638;28;20052;-75
2023/10/17 15:13:11;;;;;;;4.30;1.80;;;12.00;99.90;;;;;;4998441;28;20481;-79
2023/10/17 15:15:37;;;;;;;3.53;1.42;;;11.90;99.90;;;;;;5014174;28;20053;-80
2023/10/17 15:18:04;;;;;;;5.10;1.60;;;11.90;99.90;;;;;;5022665;28;20050;-81
2023/10/17 15:20:30;;;;;;;4.65;1.55;;;11.90;99.90;;;;;;5109680;27;20042;-84
2023/10/17 15:22:58;;;;;;;4.90;1.70;;;11.80;99.90;;;;;;4989869;28;20064;-87
2023/10/17 15:25:23;;;;;;;6.60;1.90;;;11.80;99.90;;;;;;5002207;28;20073;-89
2023/10/17 15:27:50;;;;;;;8.38;2.05;;;11.70;99.90;;;;;;4998424;28;20072;-86